Login to view Products
 
Thursday, July 09, 2020 (07:22 UTC)
Abu Dhabi International Airport
Last Updated: 09-Jul-2020 (07:21Z)
Wind Dir/Speed: SE at 05 kt
Temperature: 41.1°C
Rel. Humidity: 25 %
Pressure: 997.5 hPa
Visibility: 8000 m
ACTUALS:
  • METAR OMAA 090700Z VRB05KT 8000 NSC 41/18 Q0997 BECMG 34012KT
  • TAF OMAA 090500Z 0906/1012 18006KT 8000 NSC BECMG 0908/0910 34015KT BECMG 0918/0920 06005KT BECMG 1000/1002 14010KT BECMG 1007/1009 33015KT=
D:\Input Parser\Destinations\Final\05\OMAAL06120500524531168.txt
1